Time;durP1;ratioP1;P1;durP2;ratioP2;P2;SDS_P1;SDS_P2;PMS_P1;PMS_P2;Temp;Humidity;BMP_temperature;BMP_pressure;BME280_temperature;BME280_humidity;BME280_pressure;Samples;Min_cycle;Max_cycle;Signal;HPM_P1;HPM_P2
2022/08/10 00:02:07;;;;;;;0.73;0.60;;;24.20;46.90;;;;;;6238811;28;20029;-69
2022/08/10 00:05:07;;;;;;;0.60;0.60;;;24.20;46.90;;;;;;6247628;28;20241;-69
2022/08/10 00:08:08;;;;;;;0.43;0.40;;;24.20;46.80;;;;;;6225793;28;20049;-69
2022/08/10 00:11:09;;;;;;;0.57;0.57;;;24.20;46.70;;;;;;6226538;28;20495;-69
2022/08/10 00:14:09;;;;;;;0.30;0.30;;;24.20;46.60;;;;;;6247254;28;20026;-68
2022/08/10 00:17:10;;;;;;;1.00;0.70;;;24.20;46.50;;;;;;6233892;28;20052;-69
2022/08/10 00:20:11;;;;;;;0.52;0.50;;;24.20;46.40;;;;;;6222002;28;20038;-69
2022/08/10 00:23:12;;;;;;;1.00;0.60;;;24.20;46.40;;;;;;6241292;28;20140;-69
2022/08/10 00:26:13;;;;;;;0.50;0.50;;;24.20;46.30;;;;;;6230106;28;20436;-69
2022/08/10 00:29:13;;;;;;;0.60;0.50;;;24.20;46.30;;;;;;6245487;28;20056;-69
2022/08/10 00:32:14;;;;;;;0.77;0.57;;;24.20;46.30;;;;;;6233165;28;20026;-69
2022/08/10 00:35:15;;;;;;;0.77;0.55;;;24.20;46.30;;;;;;6221520;28;20105;-69
2022/08/10 00:38:15;;;;;;;0.40;0.40;;;24.20;46.20;;;;;;6238383;28;20080;-69
2022/08/10 00:41:16;;;;;;;0.57;0.50;;;24.20;46.90;;;;;;6245265;28;20104;-68
2022/08/10 00:44:17;;;;;;;0.57;0.40;;;24.20;46.20;;;;;;6221088;28;20022;-69
2022/08/10 00:47:18;;;;;;;0.65;0.60;;;24.20;46.00;;;;;;6229481;28;20537;-68
2022/08/10 00:50:19;;;;;;;0.82;0.60;;;24.30;46.20;;;;;;6244933;28;20419;-69
2022/08/10 00:53:20;;;;;;;0.50;0.50;;;24.30;46.00;;;;;;6228671;28;20057;-69
2022/08/10 00:56:21;;;;;;;0.60;0.50;;;24.30;46.00;;;;;;6221142;28;20026;-69
2022/08/10 00:59:22;;;;;;;0.40;0.40;;;24.30;45.90;;;;;;6245530;28;20022;-69
2022/08/10 01:02:23;;;;;;;0.98;0.68;;;24.30;45.80;;;;;;6232553;28;20104;-69
2022/08/10 01:05:24;;;;;;;0.30;0.30;;;24.30;45.90;;;;;;6244511;28;20159;-68
2022/08/10 01:08:34;;;;;;;1.77;0.60;;;24.30;45.80;;;;;;6229797;28;20038;-69
2022/08/10 01:11:45;;;;;;;1.02;0.65;;;24.30;45.80;;;;;;6219806;28;20606;-68
2022/08/10 01:14:58;;;;;;;0.47;0.45;;;24.30;45.80;;;;;;6208065;28;20189;-69
2022/08/10 01:18:20;;;;;;;0.45;0.45;;;24.30;45.80;;;;;;6229917;28;20144;-69
2022/08/10 01:21:41;;;;;;;0.55;0.50;;;24.30;45.80;;;;;;6245589;28;20026;-69
2022/08/10 01:25:21;;;;;;;0.50;0.50;;;24.30;45.70;;;;;;6220093;28;20469;-69
2022/08/10 01:28:45;;;;;;;0.50;0.50;;;24.30;45.60;;;;;;6220349;28;20021;-69
2022/08/10 01:31:52;;;;;;;0.63;0.50;;;24.30;45.60;;;;;;6220203;28;20065;-68
2022/08/10 01:35:08;;;;;;;0.60;0.57;;;24.30;45.50;;;;;;6218029;28;20028;-69
2022/08/10 01:38:28;;;;;;;0.68;0.68;;;24.30;45.50;;;;;;6227937;28;20494;-69
2022/08/10 01:41:42;;;;;;;0.40;0.40;;;24.30;45.40;;;;;;6245500;28;20021;-69
2022/08/10 01:44:48;;;;;;;0.70;0.50;;;24.30;45.50;;;;;;6222864;28;20029;-69
2022/08/10 01:51:29;;;;;;;0.50;0.50;;;24.30;45.40;;;;;;6244791;28;20033;-68
2022/08/10 01:54:30;;;;;;;0.30;0.30;;;24.30;45.30;;;;;;6225518;28;20467;-69
2022/08/10 01:57:32;;;;;;;0.70;0.55;;;24.30;45.40;;;;;;6219757;28;20026;-69
2022/08/10 02:00:38;;;;;;;0.82;0.40;;;24.30;45.30;;;;;;6235548;28;20097;-69
2022/08/10 02:03:41;;;;;;;0.35;0.35;;;24.40;45.30;;;;;;6212712;28;20021;-68
2022/08/10 02:06:51;;;;;;;0.50;0.50;;;24.40;45.30;;;;;;6243207;28;20031;-69
2022/08/10 02:09:53;;;;;;;0.45;0.45;;;24.40;45.30;;;;;;6224710;28;20117;-68
2022/08/10 02:12:57;;;;;;;0.60;0.50;;;24.40;45.40;;;;;;6220354;28;20094;-68
2022/08/10 02:15:59;;;;;;;0.40;0.40;;;24.30;45.20;;;;;;6243956;28;20022;-68
2022/08/10 02:19:02;;;;;;;0.73;0.60;;;24.30;45.20;;;;;;6232308;28;20044;-69
2022/08/10 02:22:05;;;;;;;1.10;0.50;;;24.40;45.20;;;;;;6218350;28;20068;-69
2022/08/10 02:25:08;;;;;;;1.00;0.50;;;24.40;45.30;;;;;;6226703;28;20049;-69
2022/08/10 02:28:14;;;;;;;0.75;0.70;;;24.40;45.30;;;;;;6217946;28;20204;-69
2022/08/10 02:31:19;;;;;;;0.50;0.47;;;24.40;45.10;;;;;;6217826;28;20029;-67
2022/08/10 02:34:21;;;;;;;0.52;0.52;;;24.40;45.20;;;;;;6218818;28;20014;-68
2022/08/10 02:37:25;;;;;;;0.75;0.50;;;24.40;45.00;;;;;;6219400;28;20165;-69
2022/08/10 02:40:29;;;;;;;0.52;0.50;;;24.40;45.10;;;;;;6238692;28;20023;-69
2022/08/10 02:43:34;;;;;;;0.52;0.47;;;24.40;45.30;;;;;;6240752;28;20025;-68
2022/08/10 02:46:43;;;;;;;0.32;0.32;;;24.20;46.10;;;;;;6219610;28;20527;-69
2022/08/10 02:50:18;;;;;;;0.50;0.50;;;24.10;46.40;;;;;;6222881;28;20480;-68
2022/08/10 02:53:31;;;;;;;0.40;0.40;;;24.00;46.80;;;;;;6243148;28;20059;-68
2022/08/10 02:56:40;;;;;;;0.55;0.47;;;23.90;47.50;;;;;;6193483;28;20026;-69
2022/08/10 02:59:44;;;;;;;0.50;0.40;;;23.90;48.00;;;;;;6214371;28;20470;-69
2022/08/10 03:02:48;;;;;;;0.60;0.50;;;23.80;48.40;;;;;;6220045;28;20383;-69
2022/08/10 03:05:54;;;;;;;0.70;0.43;;;23.80;48.40;;;;;;6237077;28;20026;-69
2022/08/10 03:08:57;;;;;;;0.50;0.50;;;23.80;48.20;;;;;;6239404;28;20017;-69
2022/08/10 03:12:00;;;;;;;0.50;0.50;;;23.80;48.50;;;;;;6218494;28;20513;-69
2022/08/10 03:15:03;;;;;;;1.58;0.45;;;23.80;48.60;;;;;;6229125;28;20086;-69
2022/08/10 03:18:04;;;;;;;0.73;0.47;;;23.80;49.50;;;;;;6242161;28;20571;-69
2022/08/10 03:21:07;;;;;;;1.30;0.65;;;23.80;48.80;;;;;;6223451;28;20030;-69
2022/08/10 03:24:10;;;;;;;0.57;0.57;;;23.70;48.70;;;;;;6218446;28;20590;-69
2022/08/10 03:27:13;;;;;;;1.17;0.32;;;23.70;48.80;;;;;;6217834;28;20074;-69
2022/08/10 03:30:14;;;;;;;0.60;0.57;;;23.70;48.70;;;;;;6228497;28;20087;-69
2022/08/10 03:33:16;;;;;;;0.75;0.55;;;23.70;48.80;;;;;;6221912;28;20061;-69
2022/08/10 03:36:17;;;;;;;0.80;0.50;;;23.70;48.90;;;;;;6217357;28;20018;-69
2022/08/10 03:39:18;;;;;;;0.77;0.50;;;23.70;49.20;;;;;;6219773;28;20574;-69
2022/08/10 03:42:20;;;;;;;0.50;0.45;;;23.70;48.90;;;;;;6246321;28;20025;-69
2022/08/10 03:45:22;;;;;;;0.93;0.70;;;23.70;49.10;;;;;;6237585;28;20027;-69
2022/08/10 03:48:25;;;;;;;0.40;0.40;;;23.70;49.30;;;;;;6223551;28;20057;-69
2022/08/10 03:51:26;;;;;;;0.60;0.60;;;23.70;49.30;;;;;;6241007;28;20033;-69
2022/08/10 03:54:27;;;;;;;0.47;0.47;;;23.70;49.40;;;;;;6245842;28;20387;-69
2022/08/10 03:57:29;;;;;;;0.77;0.50;;;23.70;49.40;;;;;;6221918;28;20113;-69
2022/08/10 04:00:33;;;;;;;0.63;0.55;;;23.70;49.20;;;;;;6223698;28;20622;-68
2022/08/10 04:03:34;;;;;;;0.75;0.60;;;23.60;49.20;;;;;;6197170;28;20414;-69
2022/08/10 04:06:35;;;;;;;0.47;0.45;;;23.70;49.20;;;;;;6231592;28;20040;-69
2022/08/10 04:09:38;;;;;;;0.63;0.40;;;23.70;49.20;;;;;;6246862;28;20071;-69
2022/08/10 04:12:39;;;;;;;0.80;0.60;;;23.70;49.20;;;;;;6222067;28;20030;-69
2022/08/10 04:15:40;;;;;;;0.57;0.55;;;23.60;49.20;;;;;;6229627;28;20026;-69
2022/08/10 04:18:40;;;;;;;0.70;0.50;;;23.60;49.20;;;;;;6246720;28;20025;-68
2022/08/10 04:21:44;;;;;;;0.60;0.60;;;23.60;49.20;;;;;;6229959;28;20026;-69
2022/08/10 04:24:48;;;;;;;0.80;0.43;;;23.60;49.30;;;;;;6220998;28;20133;-68
2022/08/10 04:27:51;;;;;;;0.40;0.40;;;23.60;49.30;;;;;;6246600;28;20045;-68
2022/08/10 04:30:53;;;;;;;0.40;0.40;;;23.60;49.40;;;;;;6238567;28;20030;-68
2022/08/10 04:33:56;;;;;;;0.50;0.50;;;23.60;49.40;;;;;;6220697;28;20026;-69
2022/08/10 04:37:02;;;;;;;0.57;0.55;;;23.60;49.50;;;;;;6220316;28;20064;-69
2022/08/10 04:40:04;;;;;;;1.20;0.60;;;23.60;49.50;;;;;;6222011;28;20045;-69
2022/08/10 04:43:06;;;;;;;0.43;0.43;;;23.60;49.60;;;;;;6246239;28;20104;-69
2022/08/10 04:46:06;;;;;;;0.50;0.50;;;23.60;49.70;;;;;;6237830;28;20052;-69
2022/08/10 04:49:07;;;;;;;0.50;0.50;;;23.60;49.70;;;;;;6219801;28;20026;-69
2022/08/10 04:52:07;;;;;;;0.60;0.60;;;23.60;49.70;;;;;;6235838;28;20496;-69
2022/08/10 04:55:08;;;;;;;0.50;0.50;;;23.60;49.80;;;;;;6244948;28;20022;-69
2022/08/10 04:58:09;;;;;;;0.60;0.60;;;23.60;49.80;;;;;;6223027;28;20107;-69
2022/08/10 05:01:09;;;;;;;0.57;0.57;;;23.60;49.90;;;;;;6220535;28;21023;-69
2022/08/10 05:04:10;;;;;;;0.73;0.50;;;23.60;49.90;;;;;;6204631;28;20033;-69
2022/08/10 05:07:13;;;;;;;1.02;0.63;;;23.60;50.00;;;;;;6233316;28;20168;-69
2022/08/10 05:10:13;;;;;;;0.60;0.60;;;23.60;50.00;;;;;;6245070;28;20395;-70
2022/08/10 05:13:14;;;;;;;0.55;0.55;;;23.60;50.10;;;;;;6224134;28;20026;-69
2022/08/10 05:16:15;;;;;;;0.32;0.32;;;23.60;50.10;;;;;;6225267;28;20045;-68
2022/08/10 05:19:15;;;;;;;0.93;0.52;;;23.60;50.10;;;;;;6245350;28;20017;-69
2022/08/10 05:22:16;;;;;;;0.85;0.50;;;23.60;50.10;;;;;;6233420;28;20032;-69
2022/08/10 05:25:18;;;;;;;0.82;0.50;;;23.60;50.20;;;;;;6220003;28;20141;-69
2022/08/10 05:28:18;;;;;;;0.50;0.50;;;23.60;50.20;;;;;;6221355;28;20034;-70
2022/08/10 05:31:19;;;;;;;0.63;0.50;;;23.60;50.20;;;;;;6219183;28;20044;-69
2022/08/10 05:34:25;;;;;;;0.57;0.57;;;23.60;50.20;;;;;;6220795;28;20049;-69
2022/08/10 05:37:29;;;;;;;0.82;0.57;;;23.60;50.20;;;;;;6231998;28;20573;-68
2022/08/10 05:40:29;;;;;;;0.90;0.40;;;23.60;50.20;;;;;;6244713;28;20021;-70
2022/08/10 05:43:31;;;;;;;0.57;0.50;;;23.60;50.30;;;;;;6224602;28;20124;-69
2022/08/10 05:46:31;;;;;;;0.52;0.52;;;23.60;50.30;;;;;;6222875;28;20428;-69
2022/08/10 05:49:32;;;;;;;0.60;0.60;;;23.50;50.30;;;;;;6244729;28;20110;-69
2022/08/10 05:52:33;;;;;;;0.60;0.60;;;23.50;50.30;;;;;;6233740;28;20030;-69
2022/08/10 05:55:33;;;;;;;0.68;0.50;;;23.60;50.30;;;;;;6219707;28;20029;-69
2022/08/10 05:58:35;;;;;;;0.50;0.50;;;23.50;50.30;;;;;;6237571;28;20034;-69
2022/08/10 06:01:41;;;;;;;0.70;0.50;;;23.50;50.30;;;;;;6211104;28;20029;-70
2022/08/10 06:04:44;;;;;;;0.63;0.50;;;23.50;50.30;;;;;;6232814;28;20110;-69
2022/08/10 06:08:23;;;;;;;1.15;0.63;;;23.50;51.00;;;;;;6229126;28;20046;-69
2022/08/10 06:11:29;;;;;;;0.68;0.60;;;23.50;51.00;;;;;;6218932;28;20044;-69
2022/08/10 06:17:51;;;;;;;0.60;0.50;;;23.50;50.40;;;;;;6230865;28;20022;-69
2022/08/10 06:20:52;;;;;;;0.50;0.40;;;23.50;50.40;;;;;;6246082;28;20080;-68
2022/08/10 06:23:53;;;;;;;0.50;0.50;;;23.50;50.40;;;;;;6229088;28;20050;-68
2022/08/10 06:26:54;;;;;;;0.50;0.50;;;23.50;50.40;;;;;;6221415;28;20112;-68
2022/08/10 06:29:57;;;;;;;0.40;0.40;;;23.50;50.50;;;;;;6246081;28;20041;-69
2022/08/10 06:33:01;;;;;;;0.68;0.52;;;23.50;50.50;;;;;;6226779;28;20025;-70
2022/08/10 06:36:03;;;;;;;0.50;0.50;;;23.50;50.50;;;;;;6221436;28;20018;-70
2022/08/10 06:39:04;;;;;;;0.60;0.60;;;23.50;50.50;;;;;;6238002;28;20428;-69
2022/08/10 06:42:16;;;;;;;0.32;0.32;;;23.50;50.50;;;;;;6245606;28;20061;-69
2022/08/10 06:45:42;;;;;;;0.50;0.50;;;23.50;50.60;;;;;;6196582;28;20035;-70
2022/08/10 06:48:50;;;;;;;0.50;0.50;;;23.50;50.50;;;;;;6220376;28;20041;-70
2022/08/10 06:51:55;;;;;;;0.50;0.50;;;23.50;50.60;;;;;;6245478;28;20029;-70
2022/08/10 06:54:58;;;;;;;0.63;0.40;;;23.50;50.60;;;;;;6225252;28;20034;-69
2022/08/10 06:58:00;;;;;;;0.50;0.50;;;23.50;50.60;;;;;;6226176;28;20349;-69
2022/08/10 07:01:06;;;;;;;0.65;0.60;;;23.50;50.60;;;;;;6230750;28;20041;-69
2022/08/10 07:04:42;;;;;;;0.85;0.68;;;23.50;50.60;;;;;;6223953;28;20380;-69
2022/08/10 07:07:44;;;;;;;;;;;23.50;50.60;;;;;;6244544;28;20033;-69
2022/08/10 07:10:47;;;;;;;0.60;0.50;;;23.50;50.60;;;;;;6220913;28;19914;-70
2022/08/10 07:13:49;;;;;;;0.57;0.52;;;23.50;50.70;;;;;;6231125;28;20017;-69
2022/08/10 07:16:50;;;;;;;0.82;0.50;;;23.50;50.70;;;;;;6250230;28;20025;-69
2022/08/10 07:19:56;;;;;;;1.30;0.70;;;23.50;50.70;;;;;;6233411;28;20018;-70
2022/08/10 07:22:57;;;;;;;0.65;0.50;;;23.50;50.70;;;;;;6226440;28;20515;-69
2022/08/10 07:25:59;;;;;;;0.47;0.47;;;23.50;50.80;;;;;;6233457;28;20021;-69
2022/08/10 07:29:02;;;;;;;0.63;0.55;;;23.50;50.80;;;;;;6240548;28;20031;-69
2022/08/10 07:32:04;;;;;;;0.57;0.50;;;23.50;50.80;;;;;;6225703;28;20030;-69
2022/08/10 07:35:07;;;;;;;0.60;0.60;;;23.50;50.80;;;;;;6225460;28;20025;-70
2022/08/10 07:38:11;;;;;;;0.60;0.60;;;23.50;50.80;;;;;;6226165;28;20021;-69
2022/08/10 07:41:15;;;;;;;0.53;0.53;;;23.50;51.50;;;;;;6250084;28;20014;-69
2022/08/10 07:44:17;;;;;;;1.08;0.50;;;23.50;50.80;;;;;;6241361;28;20283;-70
2022/08/10 07:47:30;;;;;;;0.65;0.50;;;23.50;50.80;;;;;;6225190;28;20037;-69
2022/08/10 07:50:33;;;;;;;0.60;0.52;;;23.50;50.90;;;;;;6243852;28;20025;-70
2022/08/10 07:53:42;;;;;;;0.40;0.40;;;23.50;50.90;;;;;;6247685;28;20109;-69
2022/08/10 07:56:47;;;;;;;0.70;0.70;;;23.50;50.90;;;;;;6224800;28;20029;-69
2022/08/10 07:59:55;;;;;;;0.50;0.50;;;23.50;50.90;;;;;;6236518;28;20146;-69
2022/08/10 08:02:58;;;;;;;0.57;0.40;;;23.50;50.90;;;;;;6202930;28;20509;-69
2022/08/10 08:06:00;;;;;;;0.65;0.65;;;23.50;50.90;;;;;;6240642;28;20075;-69
2022/08/10 08:09:03;;;;;;;0.40;0.40;;;23.50;50.90;;;;;;6245698;28;20438;-70
2022/08/10 08:12:06;;;;;;;0.47;0.47;;;23.50;51.00;;;;;;6224501;28;20022;-69
2022/08/10 08:15:09;;;;;;;0.40;0.40;;;23.50;51.00;;;;;;6236243;28;20500;-70
2022/08/10 08:18:11;;;;;;;0.55;0.52;;;23.50;51.00;;;;;;6249132;28;20022;-69
2022/08/10 08:21:12;;;;;;;1.88;0.85;;;23.50;51.00;;;;;;6228848;28;20026;-69
2022/08/10 08:24:14;;;;;;;0.60;0.50;;;23.50;51.00;;;;;;6227537;28;20403;-69
2022/08/10 08:27:18;;;;;;;1.20;0.50;;;23.50;51.10;;;;;;6247799;28;20025;-70
2022/08/10 08:30:20;;;;;;;0.43;0.43;;;23.50;51.70;;;;;;6237502;28;20038;-70
2022/08/10 08:33:22;;;;;;;0.40;0.40;;;23.50;51.10;;;;;;6224224;28;20040;-69
2022/08/10 08:36:24;;;;;;;0.50;0.50;;;23.50;51.10;;;;;;6223594;28;20029;-69
2022/08/10 08:39:24;;;;;;;0.70;0.60;;;23.50;51.10;;;;;;6226662;28;20041;-69
2022/08/10 08:43:06;;;;;;;0.57;0.50;;;23.40;51.00;;;;;;6248547;28;20383;-69
2022/08/10 08:46:40;;;;;;;0.73;0.60;;;23.40;51.00;;;;;;6232182;28;20516;-69
2022/08/10 08:49:56;;;;;;;0.60;0.60;;;23.40;51.00;;;;;;6227334;28;20036;-69
2022/08/10 08:53:50;;;;;;;0.40;0.40;;;23.40;51.10;;;;;;6248063;28;20574;-69
2022/08/10 08:56:59;;;;;;;0.50;0.50;;;23.40;51.10;;;;;;6224762;28;20058;-69
2022/08/10 09:00:26;;;;;;;0.55;0.50;;;23.40;51.10;;;;;;6228384;28;20025;-69
2022/08/10 09:03:49;;;;;;;0.70;0.47;;;23.50;51.20;;;;;;6199175;28;20038;-69
2022/08/10 09:07:36;;;;;;;0.60;0.60;;;23.40;51.10;;;;;;6236663;28;20510;-68
2022/08/10 09:11:07;;;;;;;0.73;0.50;;;23.40;51.10;;;;;;6239665;28;20386;-69
2022/08/10 09:14:23;;;;;;;0.50;0.40;;;23.40;51.20;;;;;;6223454;28;20411;-70
2022/08/10 09:17:53;;;;;;;0.40;0.40;;;23.40;51.20;;;;;;6243410;28;20420;-70
2022/08/10 09:21:08;;;;;;;0.43;0.43;;;23.40;51.20;;;;;;6215055;28;20038;-70
2022/08/10 09:24:14;;;;;;;0.50;0.50;;;23.40;51.20;;;;;;6222686;28;20037;-69
2022/08/10 09:27:44;;;;;;;0.60;0.60;;;23.40;51.20;;;;;;6222600;28;20049;-69
2022/08/10 09:30:56;;;;;;;0.50;0.50;;;23.40;51.20;;;;;;6229612;28;20033;-69
2022/08/10 09:34:18;;;;;;;0.43;0.43;;;23.40;51.20;;;;;;6222493;28;20014;-69
2022/08/10 09:37:25;;;;;;;0.50;0.50;;;23.40;51.20;;;;;;6221412;28;20476;-69
2022/08/10 09:40:53;;;;;;;0.40;0.40;;;23.40;51.30;;;;;;6225230;28;20163;-69
2022/08/10 09:44:33;;;;;;;0.60;0.50;;;23.40;51.20;;;;;;6246736;28;20056;-69
2022/08/10 09:47:52;;;;;;;0.50;0.50;;;23.40;51.30;;;;;;6224315;28;20080;-69
2022/08/10 09:51:00;;;;;;;0.55;0.50;;;23.40;51.30;;;;;;6225951;28;20032;-69
2022/08/10 09:54:06;;;;;;;0.50;0.50;;;23.40;51.40;;;;;;6246770;28;20025;-69
2022/08/10 09:57:38;;;;;;;0.73;0.50;;;23.40;51.30;;;;;;6231936;28;20034;-69
2022/08/10 10:01:01;;;;;;;0.40;0.40;;;23.40;51.30;;;;;;6224372;28;20105;-69
2022/08/10 10:04:22;;;;;;;0.50;0.50;;;23.40;51.30;;;;;;6246669;28;20074;-69
2022/08/10 10:07:28;;;;;;;0.50;0.50;;;23.40;52.00;;;;;;6231060;28;20038;-69
2022/08/10 10:10:39;;;;;;;0.45;0.40;;;23.40;51.40;;;;;;6222549;28;20038;-69
2022/08/10 10:14:06;;;;;;;0.35;0.35;;;23.40;51.40;;;;;;6197541;28;20037;-69
2022/08/10 10:17:19;;;;;;;0.60;0.50;;;23.40;51.30;;;;;;6220764;28;20037;-69
2022/08/10 10:20:55;;;;;;;0.35;0.32;;;23.40;51.40;;;;;;6246467;28;20025;-69
2022/08/10 10:24:29;;;;;;;0.50;0.38;;;23.40;51.40;;;;;;6196816;28;20049;-69
2022/08/10 10:27:39;;;;;;;0.50;0.50;;;23.40;51.40;;;;;;6239130;28;20028;-69
2022/08/10 10:30:54;;;;;;;0.40;0.40;;;23.40;51.40;;;;;;6246271;28;20080;-69
2022/08/10 10:34:10;;;;;;;0.47;0.40;;;23.40;51.40;;;;;;6221242;28;20050;-70
2022/08/10 10:37:12;;;;;;;0.50;0.50;;;23.40;51.40;;;;;;6230664;28;20022;-69
2022/08/10 10:40:14;;;;;;;0.40;0.40;;;23.40;51.40;;;;;;6246229;28;20025;-69
2022/08/10 10:43:40;;;;;;;0.47;0.40;;;23.40;51.40;;;;;;6228059;28;20022;-69
2022/08/10 10:46:51;;;;;;;0.73;0.52;;;23.40;51.40;;;;;;6225220;28;20021;-69
2022/08/10 10:50:04;;;;;;;0.45;0.35;;;23.40;51.40;;;;;;6245355;28;20026;-69
2022/08/10 10:53:10;;;;;;;0.30;0.30;;;23.40;51.40;;;;;;6230204;28;20092;-68
2022/08/10 10:56:34;;;;;;;0.43;0.43;;;23.40;51.40;;;;;;6221444;28;20489;-69
2022/08/10 11:00:01;;;;;;;0.40;0.40;;;23.40;51.40;;;;;;6196907;28;20073;-69
2022/08/10 11:03:40;;;;;;;0.77;0.60;;;23.40;51.40;;;;;;6222341;28;20503;-69
2022/08/10 11:07:15;;;;;;;0.30;0.30;;;23.40;51.40;;;;;;6244683;28;20029;-69
2022/08/10 11:10:21;;;;;;;1.85;0.30;;;23.40;51.40;;;;;;6220959;28;20030;-69
2022/08/10 11:13:44;;;;;;;0.77;0.60;;;23.40;51.50;;;;;;6234720;28;20476;-69
2022/08/10 11:16:50;;;;;;;0.60;0.40;;;23.40;51.50;;;;;;6245032;28;20075;-69
2022/08/10 11:20:12;;;;;;;0.40;0.40;;;23.40;51.50;;;;;;6220950;28;20022;-69
2022/08/10 11:23:35;;;;;;;0.45;0.40;;;23.40;51.50;;;;;;6232271;28;20088;-69
2022/08/10 11:26:46;;;;;;;0.50;0.50;;;23.40;51.50;;;;;;6223606;28;20065;-69
2022/08/10 11:30:02;;;;;;;0.50;0.32;;;23.40;51.50;;;;;;6220883;28;20084;-69
2022/08/10 11:33:24;;;;;;;0.40;0.40;;;23.40;51.50;;;;;;6220561;28;20053;-69
2022/08/10 11:36:48;;;;;;;0.50;0.50;;;23.40;51.60;;;;;;6221141;28;20018;-69
2022/08/10 11:40:03;;;;;;;0.40;0.40;;;23.30;52.30;;;;;;6243104;28;20017;-69
2022/08/10 11:43:22;;;;;;;0.40;0.40;;;23.30;49.90;;;;;;6237501;28;20022;-69
2022/08/10 11:46:30;;;;;;;0.40;0.40;;;23.50;49.30;;;;;;6221072;28;20034;-68
2022/08/10 11:49:56;;;;;;;0.50;0.50;;;23.60;48.70;;;;;;6239067;28;20469;-69
2022/08/10 11:53:21;;;;;;;0.70;0.50;;;23.70;48.40;;;;;;6239533;28;20442;-69
2022/08/10 11:56:49;;;;;;;0.50;0.40;;;23.80;48.20;;;;;;6220317;28;20077;-68
2022/08/10 11:59:56;;;;;;;0.40;0.40;;;23.80;47.80;;;;;;6236776;28;20099;-69
2022/08/10 12:03:03;;;;;;;0.35;0.35;;;23.90;48.40;;;;;;6209397;28;20013;-68
2022/08/10 12:06:08;;;;;;;0.43;0.40;;;24.00;47.60;;;;;;6248746;28;20021;-68
2022/08/10 12:09:11;;;;;;;0.43;0.40;;;24.00;47.50;;;;;;6235789;28;20026;-69
2022/08/10 12:12:12;;;;;;;0.45;0.45;;;24.00;47.40;;;;;;6224879;28;20160;-69
2022/08/10 12:15:24;;;;;;;0.90;0.40;;;24.00;47.10;;;;;;6245650;28;20111;-69
2022/08/10 12:18:37;;;;;;;0.38;0.32;;;24.00;47.00;;;;;;6243113;28;20018;-69
2022/08/10 12:21:44;;;;;;;0.40;0.40;;;24.10;47.00;;;;;;6224903;28;20021;-69
2022/08/10 12:24:54;;;;;;;0.52;0.40;;;24.10;46.90;;;;;;6240361;28;20563;-69
2022/08/10 12:28:04;;;;;;;0.63;0.45;;;24.10;46.90;;;;;;6249566;28;20021;-68
2022/08/10 12:31:09;;;;;;;2.17;0.40;;;24.10;46.80;;;;;;6224002;28;20029;-68
2022/08/10 12:34:13;;;;;;;0.40;0.40;;;24.10;46.70;;;;;;6223870;28;20064;-69
2022/08/10 12:37:28;;;;;;;0.40;0.40;;;24.10;46.60;;;;;;6224273;28;20061;-69
2022/08/10 12:40:30;;;;;;;;;;;24.10;46.50;;;;;;6244339;28;20065;-69
2022/08/10 12:43:49;;;;;;;0.52;0.40;;;24.10;46.50;;;;;;6243682;28;20281;-69
2022/08/10 12:47:25;;;;;;;0.40;0.40;;;24.10;46.50;;;;;;6224024;28;20026;-69
2022/08/10 12:50:51;;;;;;;0.30;0.30;;;24.10;46.40;;;;;;6236457;28;20046;-68
2022/08/10 12:54:01;;;;;;;0.32;0.32;;;24.20;46.40;;;;;;6243721;28;20034;-69
2022/08/10 12:57:14;;;;;;;0.40;0.30;;;24.20;46.30;;;;;;6224041;28;20022;-69
2022/08/10 13:00:15;;;;;;;0.40;0.40;;;24.20;46.20;;;;;;6236270;28;20052;-69
2022/08/10 13:03:21;;;;;;;0.30;0.30;;;24.20;46.10;;;;;;6199517;28;20486;-69
2022/08/10 13:06:22;;;;;;;0.40;0.40;;;24.20;46.20;;;;;;6246249;28;20037;-69
2022/08/10 13:09:24;;;;;;;0.40;0.40;;;24.20;46.00;;;;;;6241024;28;20022;-69
2022/08/10 13:12:29;;;;;;;0.22;0.22;;;24.20;46.10;;;;;;6223177;28;20080;-68
2022/08/10 13:15:33;;;;;;;0.40;0.40;;;24.20;46.00;;;;;;6238393;28;20464;-68
2022/08/10 13:18:39;;;;;;;0.32;0.32;;;24.20;45.90;;;;;;6247977;28;20029;-69
2022/08/10 13:21:41;;;;;;;0.30;0.30;;;24.20;45.90;;;;;;6223756;28;20072;-68
2022/08/10 13:24:46;;;;;;;0.30;0.30;;;24.20;45.80;;;;;;6224136;28;20057;-69
2022/08/10 13:27:47;;;;;;;;;;;24.20;45.80;;;;;;6223095;28;20033;-69
2022/08/10 13:30:49;;;;;;;0.30;0.30;;;24.20;45.80;;;;;;6222864;28;19913;-68
2022/08/10 13:33:55;;;;;;;0.73;0.50;;;24.20;45.80;;;;;;6222825;28;20054;-69
2022/08/10 13:37:01;;;;;;;0.35;0.35;;;24.20;45.70;;;;;;6223152;28;20405;-69
2022/08/10 13:40:04;;;;;;;0.50;0.50;;;24.20;45.70;;;;;;6230412;28;20037;-69
2022/08/10 13:43:06;;;;;;;0.30;0.30;;;24.20;45.60;;;;;;6247450;28;20025;-69
2022/08/10 13:46:15;;;;;;;0.28;0.28;;;24.20;45.60;;;;;;6230403;28;20455;-69
2022/08/10 13:49:19;;;;;;;0.30;0.30;;;24.20;45.50;;;;;;6222678;28;20022;-69
2022/08/10 13:52:22;;;;;;;0.55;0.45;;;24.20;45.50;;;;;;6247198;28;20024;-69
2022/08/10 13:55:26;;;;;;;0.40;0.40;;;24.20;45.50;;;;;;6236651;28;20099;-69
2022/08/10 13:58:29;;;;;;;0.30;0.30;;;24.20;45.40;;;;;;6222264;28;20026;-68
2022/08/10 14:01:32;;;;;;;0.30;0.30;;;24.20;45.40;;;;;;6216630;28;20110;-69
2022/08/10 14:04:33;;;;;;;0.20;0.20;;;24.30;45.40;;;;;;6198850;28;20030;-68
2022/08/10 14:07:38;;;;;;;0.30;0.30;;;24.30;45.40;;;;;;6246800;28;20526;-69
2022/08/10 14:10:41;;;;;;;0.30;0.30;;;24.20;45.30;;;;;;6237839;28;20366;-69
2022/08/10 14:13:50;;;;;;;0.98;0.82;;;24.30;45.30;;;;;;6221691;28;20773;-68
2022/08/10 14:16:51;;;;;;;0.70;0.32;;;24.30;45.30;;;;;;6240100;28;20053;-69
2022/08/10 14:19:56;;;;;;;0.30;0.30;;;24.30;45.30;;;;;;6245237;28;20053;-69
2022/08/10 14:23:04;;;;;;;0.57;0.30;;;24.30;45.30;;;;;;6221715;28;20049;-69
2022/08/10 14:26:07;;;;;;;0.20;0.20;;;24.30;45.30;;;;;;6221143;28;20037;-68
2022/08/10 14:29:11;;;;;;;0.40;0.40;;;24.30;45.20;;;;;;6222052;28;20071;-69
2022/08/10 14:32:15;;;;;;;0.30;0.30;;;24.30;45.20;;;;;;6228422;28;20040;-69
2022/08/10 14:35:18;;;;;;;0.20;0.20;;;24.30;45.30;;;;;;6221365;28;20030;-68
2022/08/10 14:38:21;;;;;;;0.40;0.40;;;24.30;45.10;;;;;;6221692;28;20029;-69
2022/08/10 14:41:28;;;;;;;0.30;0.30;;;24.20;45.00;;;;;;6231940;28;20025;-69
2022/08/10 14:44:30;;;;;;;0.30;0.30;;;24.30;45.10;;;;;;6245825;28;20472;-68
2022/08/10 14:47:37;;;;;;;0.20;0.20;;;24.30;45.00;;;;;;6226581;28;20430;-69
2022/08/10 14:50:39;;;;;;;0.40;0.40;;;24.30;45.10;;;;;;6224285;28;20041;-69
2022/08/10 14:53:41;;;;;;;0.35;0.28;;;24.30;45.00;;;;;;6246029;28;20024;-69
2022/08/10 14:56:44;;;;;;;0.40;0.40;;;24.30;45.10;;;;;;6234556;28;20034;-69
2022/08/10 14:59:46;;;;;;;0.30;0.20;;;24.30;45.20;;;;;;6221406;28;20112;-69
2022/08/10 15:02:50;;;;;;;0.40;0.30;;;24.10;45.70;;;;;;6235024;28;20041;-67
2022/08/10 15:05:52;;;;;;;0.40;0.28;;;24.00;46.30;;;;;;6241347;28;20374;-69
2022/08/10 15:09:02;;;;;;;0.30;0.30;;;23.90;46.60;;;;;;6221231;28;20033;-68
2022/08/10 15:12:03;;;;;;;0.35;0.32;;;23.90;47.90;;;;;;6233007;28;20084;-69
2022/08/10 15:15:08;;;;;;;0.40;0.40;;;23.80;47.80;;;;;;6244181;28;20029;-69
2022/08/10 15:18:09;;;;;;;0.57;0.30;;;23.80;48.00;;;;;;6224588;28;20037;-69
2022/08/10 15:21:12;;;;;;;0.40;0.40;;;23.80;48.20;;;;;;6224375;28;20105;-69
2022/08/10 15:24:58;;;;;;;0.30;0.30;;;23.70;48.20;;;;;;6243049;28;20050;-69
2022/08/10 15:27:43;;;;;;;0.38;0.38;;;23.70;48.40;;;;;;6235553;28;20061;-69
2022/08/10 15:30:46;;;;;;;1.60;0.40;;;23.70;48.30;;;;;;6245220;28;20036;-69
2022/08/10 15:37:15;;;;;;;0.30;0.30;;;23.70;48.50;;;;;;6235721;28;20492;-69
2022/08/10 15:40:18;;;;;;;0.30;0.30;;;23.70;48.60;;;;;;6250216;28;20030;-69
2022/08/10 15:43:24;;;;;;;0.30;0.30;;;23.70;48.70;;;;;;6231901;28;20018;-69
2022/08/10 15:46:44;;;;;;;0.30;0.30;;;23.70;48.60;;;;;;6227650;28;20018;-69
2022/08/10 15:49:57;;;;;;;0.30;0.30;;;23.60;48.70;;;;;;6249673;28;20033;-69
2022/08/10 15:53:05;;;;;;;0.30;0.30;;;23.60;48.60;;;;;;6235484;28;20497;-69
2022/08/10 15:56:14;;;;;;;0.20;0.20;;;23.60;48.80;;;;;;6225178;28;20481;-69
2022/08/10 15:59:39;;;;;;;0.30;0.30;;;23.60;49.30;;;;;;6247403;28;20029;-69
2022/08/10 16:02:49;;;;;;;;;;;23.60;48.90;;;;;;6228678;28;20059;-69
2022/08/10 16:05:53;;;;;;;0.25;0.20;;;23.60;49.10;;;;;;6249713;28;20004;-69
2022/08/10 16:09:00;;;;;;;0.17;0.17;;;23.60;49.10;;;;;;6229528;28;20025;-69
2022/08/10 16:12:13;;;;;;;0.40;0.30;;;23.60;49.10;;;;;;6228553;28;20034;-69
2022/08/10 16:15:17;;;;;;;0.30;0.30;;;23.60;49.10;;;;;;6247796;28;20021;-69
2022/08/10 16:18:22;;;;;;;0.30;0.30;;;23.60;49.30;;;;;;6233796;28;20038;-69
2022/08/10 16:21:25;;;;;;;0.20;0.20;;;23.60;49.30;;;;;;6237853;28;20025;-69
2022/08/10 16:24:31;;;;;;;0.20;0.20;;;23.60;49.20;;;;;;6239790;28;20088;-69
2022/08/10 16:27:34;;;;;;;0.40;0.40;;;23.60;49.00;;;;;;6221080;28;20018;-68
2022/08/10 16:30:41;;;;;;;0.30;0.30;;;23.60;49.10;;;;;;6220494;28;20330;-69